sensor_id;sensor_type;location;lat;lon;timestamp;temperature;humidity
38333;DHT22;25748;46.670;14.272;2022-07-05T00:02:12;19.90;82.50
38333;DHT22;25748;46.670;14.272;2022-07-05T00:04:37;19.80;82.50
38333;DHT22;25748;46.670;14.272;2022-07-05T00:07:03;19.80;82.20
38333;DHT22;25748;46.670;14.272;2022-07-05T00:09:57;19.80;82.20
38333;DHT22;25748;46.670;14.272;2022-07-05T00:12:31;19.80;82.20
38333;DHT22;25748;46.670;14.272;2022-07-05T00:15:00;19.80;82.00
38333;DHT22;25748;46.670;14.272;2022-07-05T00:17:26;19.80;82.00
38333;DHT22;25748;46.670;14.272;2022-07-05T00:19:52;19.80;81.80
38333;DHT22;25748;46.670;14.272;2022-07-05T00:22:17;19.80;81.70
38333;DHT22;25748;46.670;14.272;2022-07-05T00:24:43;19.70;81.60
38333;DHT22;25748;46.670;14.272;2022-07-05T00:27:09;19.80;81.60
38333;DHT22;25748;46.670;14.272;2022-07-05T00:29:34;19.70;81.50
38333;DHT22;25748;46.670;14.272;2022-07-05T00:32:00;19.70;81.50
38333;DHT22;25748;46.670;14.272;2022-07-05T00:34:26;19.70;81.70
38333;DHT22;25748;46.670;14.272;2022-07-05T00:36:52;19.70;81.80
38333;DHT22;25748;46.670;14.272;2022-07-05T00:39:17;19.70;81.90
38333;DHT22;25748;46.670;14.272;2022-07-05T00:41:43;19.60;81.80
38333;DHT22;25748;46.670;14.272;2022-07-05T00:44:10;19.60;81.50
38333;DHT22;25748;46.670;14.272;2022-07-05T00:46:37;19.60;81.60
38333;DHT22;25748;46.670;14.272;2022-07-05T00:49:04;19.60;81.60
38333;DHT22;25748;46.670;14.272;2022-07-05T00:51:33;19.60;82.00
38333;DHT22;25748;46.670;14.272;2022-07-05T00:54:00;19.50;82.00
38333;DHT22;25748;46.670;14.272;2022-07-05T00:56:27;19.50;82.10
38333;DHT22;25748;46.670;14.272;2022-07-05T00:58:53;19.50;82.10
38333;DHT22;25748;46.670;14.272;2022-07-05T01:01:19;19.50;81.80
38333;DHT22;25748;46.670;14.272;2022-07-05T01:03:45;19.50;82.00
38333;DHT22;25748;46.670;14.272;2022-07-05T01:06:12;19.50;81.70
38333;DHT22;25748;46.670;14.272;2022-07-05T01:08:40;19.40;81.60
38333;DHT22;25748;46.670;14.272;2022-07-05T01:11:08;19.40;81.20
38333;DHT22;25748;46.670;14.272;2022-07-05T01:13:35;19.40;81.80
38333;DHT22;25748;46.670;14.272;2022-07-05T01:16:01;19.40;81.90
38333;DHT22;25748;46.670;14.272;2022-07-05T01:18:28;19.40;82.00
38333;DHT22;25748;46.670;14.272;2022-07-05T01:20:54;19.40;82.30
38333;DHT22;25748;46.670;14.272;2022-07-05T01:23:21;19.30;82.40
38333;DHT22;25748;46.670;14.272;2022-07-05T01:25:48;19.30;82.90
38333;DHT22;25748;46.670;14.272;2022-07-05T01:28:14;19.30;83.20
38333;DHT22;25748;46.670;14.272;2022-07-05T01:30:42;19.30;83.40
38333;DHT22;25748;46.670;14.272;2022-07-05T01:33:08;19.30;83.60
38333;DHT22;25748;46.670;14.272;2022-07-05T01:35:35;19.30;83.60
38333;DHT22;25748;46.670;14.272;2022-07-05T01:38:01;19.30;83.90
38333;DHT22;25748;46.670;14.272;2022-07-05T01:40:27;19.30;84.00
38333;DHT22;25748;46.670;14.272;2022-07-05T01:42:53;19.30;84.30
38333;DHT22;25748;46.670;14.272;2022-07-05T01:45:19;19.20;84.50
38333;DHT22;25748;46.670;14.272;2022-07-05T01:48:12;19.20;84.70
38333;DHT22;25748;46.670;14.272;2022-07-05T01:50:51;19.30;85.10
38333;DHT22;25748;46.670;14.272;2022-07-05T01:53:19;19.20;85.30
38333;DHT22;25748;46.670;14.272;2022-07-05T01:55:46;19.20;85.50
38333;DHT22;25748;46.670;14.272;2022-07-05T01:58:12;19.20;85.70
38333;DHT22;25748;46.670;14.272;2022-07-05T02:00:46;19.20;85.90
38333;DHT22;25748;46.670;14.272;2022-07-05T02:03:12;19.30;85.90
38333;DHT22;25748;46.670;14.272;2022-07-05T02:05:39;19.30;85.90
38333;DHT22;25748;46.670;14.272;2022-07-05T02:08:05;19.30;86.00
38333;DHT22;25748;46.670;14.272;2022-07-05T02:10:31;19.30;85.90
38333;DHT22;25748;46.670;14.272;2022-07-05T02:12:56;19.30;85.80
38333;DHT22;25748;46.670;14.272;2022-07-05T02:15:22;19.30;85.90
38333;DHT22;25748;46.670;14.272;2022-07-05T02:17:48;19.30;86.00
38333;DHT22;25748;46.670;14.272;2022-07-05T02:20:13;19.30;86.10
38333;DHT22;25748;46.670;14.272;2022-07-05T02:22:39;19.30;86.20
38333;DHT22;25748;46.670;14.272;2022-07-05T02:25:05;19.40;86.30
38333;DHT22;25748;46.670;14.272;2022-07-05T02:27:31;19.40;86.30
38333;DHT22;25748;46.670;14.272;2022-07-05T02:29:57;19.40;86.50
38333;DHT22;25748;46.670;14.272;2022-07-05T02:32:22;19.40;86.50
38333;DHT22;25748;46.670;14.272;2022-07-05T02:34:48;19.40;86.60
38333;DHT22;25748;46.670;14.272;2022-07-05T02:37:14;19.40;86.50
38333;DHT22;25748;46.670;14.272;2022-07-05T02:39:39;19.40;86.40
38333;DHT22;25748;46.670;14.272;2022-07-05T02:42:05;19.40;86.30
38333;DHT22;25748;46.670;14.272;2022-07-05T02:44:31;19.40;86.10
38333;DHT22;25748;46.670;14.272;2022-07-05T02:46:56;19.40;86.00
38333;DHT22;25748;46.670;14.272;2022-07-05T02:49:22;19.40;85.80
38333;DHT22;25748;46.670;14.272;2022-07-05T02:51:48;19.40;85.80
38333;DHT22;25748;46.670;14.272;2022-07-05T02:54:13;19.30;85.80
38333;DHT22;25748;46.670;14.272;2022-07-05T02:56:39;19.30;85.90
38333;DHT22;25748;46.670;14.272;2022-07-05T02:59:05;19.30;86.00
38333;DHT22;25748;46.670;14.272;2022-07-05T03:01:31;19.30;86.20
38333;DHT22;25748;46.670;14.272;2022-07-05T03:03:56;19.30;86.00
38333;DHT22;25748;46.670;14.272;2022-07-05T03:06:24;19.30;85.80
38333;DHT22;25748;46.670;14.272;2022-07-05T03:08:50;19.30;85.80
38333;DHT22;25748;46.670;14.272;2022-07-05T03:11:15;19.20;85.80
38333;DHT22;25748;46.670;14.272;2022-07-05T03:13:41;19.20;85.90
38333;DHT22;25748;46.670;14.272;2022-07-05T03:16:07;19.20;86.00
38333;DHT22;25748;46.670;14.272;2022-07-05T03:18:33;19.20;85.90
38333;DHT22;25748;46.670;14.272;2022-07-05T03:20:59;19.20;86.00
38333;DHT22;25748;46.670;14.272;2022-07-05T03:23:25;19.20;86.10
38333;DHT22;25748;46.670;14.272;2022-07-05T03:25:50;19.20;86.20
38333;DHT22;25748;46.670;14.272;2022-07-05T03:28:16;19.20;86.40
38333;DHT22;25748;46.670;14.272;2022-07-05T03:30:42;19.20;86.60
38333;DHT22;25748;46.670;14.272;2022-07-05T03:33:07;19.20;86.60
38333;DHT22;25748;46.670;14.272;2022-07-05T03:35:33;19.30;86.80
38333;DHT22;25748;46.670;14.272;2022-07-05T03:37:59;19.30;86.90
38333;DHT22;25748;46.670;14.272;2022-07-05T03:40:24;19.30;86.90
38333;DHT22;25748;46.670;14.272;2022-07-05T03:42:50;19.30;86.60
38333;DHT22;25748;46.670;14.272;2022-07-05T03:45:16;19.20;86.40
38333;DHT22;25748;46.670;14.272;2022-07-05T03:47:42;19.20;86.60
38333;DHT22;25748;46.670;14.272;2022-07-05T03:50:08;19.20;86.50
38333;DHT22;25748;46.670;14.272;2022-07-05T03:52:33;19.20;86.40
38333;DHT22;25748;46.670;14.272;2022-07-05T03:54:59;19.20;86.60
38333;DHT22;25748;46.670;14.272;2022-07-05T03:57:25;19.20;86.80
38333;DHT22;25748;46.670;14.272;2022-07-05T03:59:51;19.20;86.90
38333;DHT22;25748;46.670;14.272;2022-07-05T04:02:16;19.20;86.90
38333;DHT22;25748;46.670;14.272;2022-07-05T04:04:42;19.20;87.00
38333;DHT22;25748;46.670;14.272;2022-07-05T04:07:08;19.20;87.20
38333;DHT22;25748;46.670;14.272;2022-07-05T04:09:34;19.20;87.40
38333;DHT22;25748;46.670;14.272;2022-07-05T04:11:59;19.20;87.30
38333;DHT22;25748;46.670;14.272;2022-07-05T04:14:25;19.20;87.30
38333;DHT22;25748;46.670;14.272;2022-07-05T04:16:51;19.20;87.20
38333;DHT22;25748;46.670;14.272;2022-07-05T04:19:16;19.20;87.20
38333;DHT22;25748;46.670;14.272;2022-07-05T04:21:42;19.20;87.30
38333;DHT22;25748;46.670;14.272;2022-07-05T04:24:08;19.20;87.10
38333;DHT22;25748;46.670;14.272;2022-07-05T04:26:33;19.20;87.10
38333;DHT22;25748;46.670;14.272;2022-07-05T04:28:59;19.20;87.30
38333;DHT22;25748;46.670;14.272;2022-07-05T04:31:25;19.20;87.70
38333;DHT22;25748;46.670;14.272;2022-07-05T04:33:51;19.20;87.90
38333;DHT22;25748;46.670;14.272;2022-07-05T04:36:16;19.20;87.70
38333;DHT22;25748;46.670;14.272;2022-07-05T04:38:42;19.10;87.50
38333;DHT22;25748;46.670;14.272;2022-07-05T04:41:08;19.20;87.70
38333;DHT22;25748;46.670;14.272;2022-07-05T04:43:33;19.20;87.90
38333;DHT22;25748;46.670;14.272;2022-07-05T04:46:00;19.20;88.20
38333;DHT22;25748;46.670;14.272;2022-07-05T04:48:25;19.20;88.00
38333;DHT22;25748;46.670;14.272;2022-07-05T04:50:51;19.20;87.90
38333;DHT22;25748;46.670;14.272;2022-07-05T04:53:17;19.20;87.90
38333;DHT22;25748;46.670;14.272;2022-07-05T04:55:43;19.20;88.10
38333;DHT22;25748;46.670;14.272;2022-07-05T04:58:08;19.20;88.20
38333;DHT22;25748;46.670;14.272;2022-07-05T05:00:34;19.20;88.20
38333;DHT22;25748;46.670;14.272;2022-07-05T05:03:01;19.30;88.20
38333;DHT22;25748;46.670;14.272;2022-07-05T05:05:26;19.30;88.30
38333;DHT22;25748;46.670;14.272;2022-07-05T05:07:52;19.30;88.00
38333;DHT22;25748;46.670;14.272;2022-07-05T05:10:18;19.30;87.90
38333;DHT22;25748;46.670;14.272;2022-07-05T05:12:44;19.30;87.70
38333;DHT22;25748;46.670;14.272;2022-07-05T05:15:09;19.30;87.50
38333;DHT22;25748;46.670;14.272;2022-07-05T05:17:39;19.30;87.10
38333;DHT22;25748;46.670;14.272;2022-07-05T05:20:10;19.30;87.10
38333;DHT22;25748;46.670;14.272;2022-07-05T05:22:36;19.40;87.30
38333;DHT22;25748;46.670;14.272;2022-07-05T05:25:02;19.40;87.20
38333;DHT22;25748;46.670;14.272;2022-07-05T05:27:28;19.40;87.00
38333;DHT22;25748;46.670;14.272;2022-07-05T05:29:54;19.30;86.80
38333;DHT22;25748;46.670;14.272;2022-07-05T05:32:20;19.40;87.00
38333;DHT22;25748;46.670;14.272;2022-07-05T05:34:46;19.40;87.10
38333;DHT22;25748;46.670;14.272;2022-07-05T05:37:11;19.40;87.30
38333;DHT22;25748;46.670;14.272;2022-07-05T05:39:37;19.40;87.30
38333;DHT22;25748;46.670;14.272;2022-07-05T05:42:03;19.40;87.30
38333;DHT22;25748;46.670;14.272;2022-07-05T05:44:29;19.50;87.20
38333;DHT22;25748;46.670;14.272;2022-07-05T05:46:55;19.50;87.10
38333;DHT22;25748;46.670;14.272;2022-07-05T05:49:20;19.60;87.60
38333;DHT22;25748;46.670;14.272;2022-07-05T05:51:46;19.70;86.70
38333;DHT22;25748;46.670;14.272;2022-07-05T05:54:12;19.70;86.20
38333;DHT22;25748;46.670;14.272;2022-07-05T05:56:37;19.80;86.00
38333;DHT22;25748;46.670;14.272;2022-07-05T05:59:04;19.90;86.10
38333;DHT22;25748;46.670;14.272;2022-07-05T06:01:32;20.00;86.00
38333;DHT22;25748;46.670;14.272;2022-07-05T06:03:58;20.20;84.80
38333;DHT22;25748;46.670;14.272;2022-07-05T06:06:24;20.40;84.10
38333;DHT22;25748;46.670;14.272;2022-07-05T06:08:49;20.70;83.00
38333;DHT22;25748;46.670;14.272;2022-07-05T06:11:15;21.00;82.90
38333;DHT22;25748;46.670;14.272;2022-07-05T06:13:41;21.20;80.80
38333;DHT22;25748;46.670;14.272;2022-07-05T06:16:07;21.40;78.20
38333;DHT22;25748;46.670;14.272;2022-07-05T06:18:34;21.50;75.80
38333;DHT22;25748;46.670;14.272;2022-07-05T06:20:59;21.60;74.70
38333;DHT22;25748;46.670;14.272;2022-07-05T06:23:25;21.80;74.60
38333;DHT22;25748;46.670;14.272;2022-07-05T06:25:51;22.00;72.90
38333;DHT22;25748;46.670;14.272;2022-07-05T06:28:17;22.20;71.90
38333;DHT22;25748;46.670;14.272;2022-07-05T06:30:42;22.30;69.70
38333;DHT22;25748;46.670;14.272;2022-07-05T06:33:09;22.60;68.30
38333;DHT22;25748;46.670;14.272;2022-07-05T06:35:35;22.90;67.30
38333;DHT22;25748;46.670;14.272;2022-07-05T06:38:03;23.30;66.60
38333;DHT22;25748;46.670;14.272;2022-07-05T06:40:35;23.80;63.50
38333;DHT22;25748;46.670;14.272;2022-07-05T06:43:03;24.20;61.30
38333;DHT22;25748;46.670;14.272;2022-07-05T06:45:29;24.30;59.10
38333;DHT22;25748;46.670;14.272;2022-07-05T06:50:25;24.70;58.00
38333;DHT22;25748;46.670;14.272;2022-07-05T06:52:51;24.80;55.70
38333;DHT22;25748;46.670;14.272;2022-07-05T06:55:17;25.10;55.40
38333;DHT22;25748;46.670;14.272;2022-07-05T06:57:43;25.40;55.00
38333;DHT22;25748;46.670;14.272;2022-07-05T07:00:09;25.70;54.30
38333;DHT22;25748;46.670;14.272;2022-07-05T07:02:35;26.00;53.70
38333;DHT22;25748;46.670;14.272;2022-07-05T07:05:01;26.30;52.90
38333;DHT22;25748;46.670;14.272;2022-07-05T07:07:27;26.60;51.80
38333;DHT22;25748;46.670;14.272;2022-07-05T07:10:11;26.80;50.00
38333;DHT22;25748;46.670;14.272;2022-07-05T07:12:36;27.10;49.50
38333;DHT22;25748;46.670;14.272;2022-07-05T07:15:02;27.50;50.20
38333;DHT22;25748;46.670;14.272;2022-07-05T07:17:28;27.90;48.10
38333;DHT22;25748;46.670;14.272;2022-07-05T07:19:54;28.20;47.20
38333;DHT22;25748;46.670;14.272;2022-07-05T07:22:20;28.50;46.60
38333;DHT22;25748;46.670;14.272;2022-07-05T07:24:46;28.80;46.90
38333;DHT22;25748;46.670;14.272;2022-07-05T07:27:12;29.00;47.00
38333;DHT22;25748;46.670;14.272;2022-07-05T07:29:39;29.40;46.70
38333;DHT22;25748;46.670;14.272;2022-07-05T07:32:06;29.60;46.20
38333;DHT22;25748;46.670;14.272;2022-07-05T07:34:32;29.80;45.60
38333;DHT22;25748;46.670;14.272;2022-07-05T07:36:59;30.00;45.60
38333;DHT22;25748;46.670;14.272;2022-07-05T07:39:25;30.30;45.80
38333;DHT22;25748;46.670;14.272;2022-07-05T07:41:52;30.30;44.70
38333;DHT22;25748;46.670;14.272;2022-07-05T07:44:18;30.50;45.20
38333;DHT22;25748;46.670;14.272;2022-07-05T07:46:44;30.80;44.50
38333;DHT22;25748;46.670;14.272;2022-07-05T07:49:10;30.50;43.80
38333;DHT22;25748;46.670;14.272;2022-07-05T07:51:37;30.70;44.00
38333;DHT22;25748;46.670;14.272;2022-07-05T07:54:03;31.00;44.50
38333;DHT22;25748;46.670;14.272;2022-07-05T07:56:29;31.20;43.10
38333;DHT22;25748;46.670;14.272;2022-07-05T07:58:54;31.30;43.30
38333;DHT22;25748;46.670;14.272;2022-07-05T08:01:20;31.30;43.10
38333;DHT22;25748;46.670;14.272;2022-07-05T08:03:46;31.50;42.70
38333;DHT22;25748;46.670;14.272;2022-07-05T08:06:12;31.00;42.70
38333;DHT22;25748;46.670;14.272;2022-07-05T08:08:39;31.20;42.80
38333;DHT22;25748;46.670;14.272;2022-07-05T08:11:06;31.20;42.60
38333;DHT22;25748;46.670;14.272;2022-07-05T08:13:32;31.40;42.30
38333;DHT22;25748;46.670;14.272;2022-07-05T08:15:58;31.60;42.30
38333;DHT22;25748;46.670;14.272;2022-07-05T08:18:24;31.80;42.30
38333;DHT22;25748;46.670;14.272;2022-07-05T08:21:08;31.50;41.90
38333;DHT22;25748;46.670;14.272;2022-07-05T08:23:52;31.20;42.30
38333;DHT22;25748;46.670;14.272;2022-07-05T08:26:18;30.90;42.30
38333;DHT22;25748;46.670;14.272;2022-07-05T08:28:44;31.00;42.50
38333;DHT22;25748;46.670;14.272;2022-07-05T08:31:09;30.90;42.10
38333;DHT22;25748;46.670;14.272;2022-07-05T08:33:35;30.70;41.90
38333;DHT22;25748;46.670;14.272;2022-07-05T08:36:01;30.90;42.90
38333;DHT22;25748;46.670;14.272;2022-07-05T08:38:27;31.00;43.00
38333;DHT22;25748;46.670;14.272;2022-07-05T08:40:55;30.90;42.20
38333;DHT22;25748;46.670;14.272;2022-07-05T08:43:25;30.80;43.00
38333;DHT22;25748;46.670;14.272;2022-07-05T08:45:54;30.50;43.30
38333;DHT22;25748;46.670;14.272;2022-07-05T08:48:21;30.10;42.40
38333;DHT22;25748;46.670;14.272;2022-07-05T08:50:47;29.70;42.80
38333;DHT22;25748;46.670;14.272;2022-07-05T08:53:18;29.30;43.00
38333;DHT22;25748;46.670;14.272;2022-07-05T08:55:45;29.20;43.70
38333;DHT22;25748;46.670;14.272;2022-07-05T08:58:11;28.90;43.40
38333;DHT22;25748;46.670;14.272;2022-07-05T09:00:39;28.60;44.00
38333;DHT22;25748;46.670;14.272;2022-07-05T09:03:05;28.50;44.60
38333;DHT22;25748;46.670;14.272;2022-07-05T09:05:36;28.20;44.50
38333;DHT22;25748;46.670;14.272;2022-07-05T09:08:06;28.10;45.40
38333;DHT22;25748;46.670;14.272;2022-07-05T09:10:36;28.10;45.40
38333;DHT22;25748;46.670;14.272;2022-07-05T09:13:03;28.00;44.80
38333;DHT22;25748;46.670;14.272;2022-07-05T09:15:28;28.00;44.90
38333;DHT22;25748;46.670;14.272;2022-07-05T09:17:54;27.90;45.20
38333;DHT22;25748;46.670;14.272;2022-07-05T09:20:20;27.90;45.00
38333;DHT22;25748;46.670;14.272;2022-07-05T09:25:29;27.70;45.10
38333;DHT22;25748;46.670;14.272;2022-07-05T09:28:05;27.70;45.20
38333;DHT22;25748;46.670;14.272;2022-07-05T09:30:39;27.70;45.70
38333;DHT22;25748;46.670;14.272;2022-07-05T09:33:15;27.70;45.60
38333;DHT22;25748;46.670;14.272;2022-07-05T09:35:43;27.60;45.00
38333;DHT22;25748;46.670;14.272;2022-07-05T09:38:23;27.60;44.70
38333;DHT22;25748;46.670;14.272;2022-07-05T09:40:59;27.50;44.20
38333;DHT22;25748;46.670;14.272;2022-07-05T09:43:28;27.50;44.70
38333;DHT22;25748;46.670;14.272;2022-07-05T09:45:58;27.40;44.80
38333;DHT22;25748;46.670;14.272;2022-07-05T09:48:26;27.30;44.80
38333;DHT22;25748;46.670;14.272;2022-07-05T09:50:52;27.40;45.30
38333;DHT22;25748;46.670;14.272;2022-07-05T09:53:20;27.40;45.20
38333;DHT22;25748;46.670;14.272;2022-07-05T09:56:03;27.50;45.60
38333;DHT22;25748;46.670;14.272;2022-07-05T09:58:28;27.50;44.60
38333;DHT22;25748;46.670;14.272;2022-07-05T10:00:54;27.50;45.00
38333;DHT22;25748;46.670;14.272;2022-07-05T10:03:20;27.50;44.90
38333;DHT22;25748;46.670;14.272;2022-07-05T10:05:46;27.60;45.40
38333;DHT22;25748;46.670;14.272;2022-07-05T10:08:12;27.50;45.10
38333;DHT22;25748;46.670;14.272;2022-07-05T10:10:38;27.60;44.70
38333;DHT22;25748;46.670;14.272;2022-07-05T10:13:06;27.70;45.00
38333;DHT22;25748;46.670;14.272;2022-07-05T10:15:36;27.80;45.60
38333;DHT22;25748;46.670;14.272;2022-07-05T10:18:13;27.90;44.70
38333;DHT22;25748;46.670;14.272;2022-07-05T10:20:44;27.90;44.40
38333;DHT22;25748;46.670;14.272;2022-07-05T10:23:15;28.00;44.70
38333;DHT22;25748;46.670;14.272;2022-07-05T10:25:43;27.90;44.00
38333;DHT22;25748;46.670;14.272;2022-07-05T10:28:09;28.00;44.60
38333;DHT22;25748;46.670;14.272;2022-07-05T10:30:36;28.00;44.70
38333;DHT22;25748;46.670;14.272;2022-07-05T10:33:03;28.10;44.50
38333;DHT22;25748;46.670;14.272;2022-07-05T10:35:29;28.10;44.50
38333;DHT22;25748;46.670;14.272;2022-07-05T10:37:56;28.10;44.80
38333;DHT22;25748;46.670;14.272;2022-07-05T10:40:23;28.20;44.80
38333;DHT22;25748;46.670;14.272;2022-07-05T10:42:52;28.00;43.90
38333;DHT22;25748;46.670;14.272;2022-07-05T10:51:00;28.10;43.70
38333;DHT22;25748;46.670;14.272;2022-07-05T10:53:59;28.10;43.90
38333;DHT22;25748;46.670;14.272;2022-07-05T10:56:15;28.00;43.80
38333;DHT22;25748;46.670;14.272;2022-07-05T11:06:43;27.60;43.60
38333;DHT22;25748;46.670;14.272;2022-07-05T11:11:42;27.50;44.70
38333;DHT22;25748;46.670;14.272;2022-07-05T11:14:32;27.50;44.60
38333;DHT22;25748;46.670;14.272;2022-07-05T11:17:20;27.30;44.70
38333;DHT22;25748;46.670;14.272;2022-07-05T11:20:12;27.30;45.00
38333;DHT22;25748;46.670;14.272;2022-07-05T11:22:41;27.20;44.80
38333;DHT22;25748;46.670;14.272;2022-07-05T11:25:09;27.10;45.00
38333;DHT22;25748;46.670;14.272;2022-07-05T11:27:36;27.10;44.70
38333;DHT22;25748;46.670;14.272;2022-07-05T11:30:02;27.10;44.60
38333;DHT22;25748;46.670;14.272;2022-07-05T11:38:03;28.60;44.70
38333;DHT22;25748;46.670;14.272;2022-07-05T11:40:31;29.60;43.40
38333;DHT22;25748;46.670;14.272;2022-07-05T11:42:57;30.30;42.20
38333;DHT22;25748;46.670;14.272;2022-07-05T11:45:24;30.70;41.60
38333;DHT22;25748;46.670;14.272;2022-07-05T11:47:53;31.20;43.00
38333;DHT22;25748;46.670;14.272;2022-07-05T11:50:28;31.80;42.70
38333;DHT22;25748;46.670;14.272;2022-07-05T11:52:54;32.40;41.60
38333;DHT22;25748;46.670;14.272;2022-07-05T11:55:20;32.90;40.90
38333;DHT22;25748;46.670;14.272;2022-07-05T11:57:51;33.10;40.30
38333;DHT22;25748;46.670;14.272;2022-07-05T12:02:57;33.80;40.50
38333;DHT22;25748;46.670;14.272;2022-07-05T12:05:23;34.10;39.90
38333;DHT22;25748;46.670;14.272;2022-07-05T12:07:50;34.30;40.00
38333;DHT22;25748;46.670;14.272;2022-07-05T12:10:17;34.60;40.20
38333;DHT22;25748;46.670;14.272;2022-07-05T12:13:08;34.90;39.30
38333;DHT22;25748;46.670;14.272;2022-07-05T12:15:35;35.10;39.10
38333;DHT22;25748;46.670;14.272;2022-07-05T12:18:03;35.10;38.60
38333;DHT22;25748;46.670;14.272;2022-07-05T12:20:30;35.50;40.30
38333;DHT22;25748;46.670;14.272;2022-07-05T12:22:56;35.50;39.20
38333;DHT22;25748;46.670;14.272;2022-07-05T12:25:25;35.60;39.10
38333;DHT22;25748;46.670;14.272;2022-07-05T12:27:52;35.80;39.40
38333;DHT22;25748;46.670;14.272;2022-07-05T12:30:19;35.60;38.40
38333;DHT22;25748;46.670;14.272;2022-07-05T12:33:05;35.00;38.10
38333;DHT22;25748;46.670;14.272;2022-07-05T12:35:41;34.20;38.90
38333;DHT22;25748;46.670;14.272;2022-07-05T12:38:14;33.50;38.90
38333;DHT22;25748;46.670;14.272;2022-07-05T12:40:41;32.80;39.40
38333;DHT22;25748;46.670;14.272;2022-07-05T12:43:12;32.20;39.50
38333;DHT22;25748;46.670;14.272;2022-07-05T12:45:40;31.70;40.10
38333;DHT22;25748;46.670;14.272;2022-07-05T12:48:07;31.30;40.00
38333;DHT22;25748;46.670;14.272;2022-07-05T12:50:48;30.90;40.80
38333;DHT22;25748;46.670;14.272;2022-07-05T12:53:14;30.80;41.20
38333;DHT22;25748;46.670;14.272;2022-07-05T12:56:07;31.50;41.80
38333;DHT22;25748;46.670;14.272;2022-07-05T12:58:53;32.20;40.40
38333;DHT22;25748;46.670;14.272;2022-07-05T13:04:00;33.20;40.30
38333;DHT22;25748;46.670;14.272;2022-07-05T13:09:15;33.80;38.80
38333;DHT22;25748;46.670;14.272;2022-07-05T13:11:42;33.90;38.10
38333;DHT22;25748;46.670;14.272;2022-07-05T13:14:08;34.10;38.00
38333;DHT22;25748;46.670;14.272;2022-07-05T13:16:34;34.00;38.00
38333;DHT22;25748;46.670;14.272;2022-07-05T13:19:10;33.70;37.70
38333;DHT22;25748;46.670;14.272;2022-07-05T13:21:36;33.30;38.30
38333;DHT22;25748;46.670;14.272;2022-07-05T13:24:02;33.20;38.90
38333;DHT22;25748;46.670;14.272;2022-07-05T13:26:28;33.60;39.30
38333;DHT22;25748;46.670;14.272;2022-07-05T13:28:54;34.00;38.60
38333;DHT22;25748;46.670;14.272;2022-07-05T13:31:19;34.40;38.30
38333;DHT22;25748;46.670;14.272;2022-07-05T13:33:46;34.40;38.00
38333;DHT22;25748;46.670;14.272;2022-07-05T13:36:11;34.20;38.00
38333;DHT22;25748;46.670;14.272;2022-07-05T13:38:37;33.90;37.90
38333;DHT22;25748;46.670;14.272;2022-07-05T13:41:03;33.80;38.20
38333;DHT22;25748;46.670;14.272;2022-07-05T13:43:28;33.60;38.50
38333;DHT22;25748;46.670;14.272;2022-07-05T13:45:54;33.20;38.60
38333;DHT22;25748;46.670;14.272;2022-07-05T13:48:20;32.80;38.90
38333;DHT22;25748;46.670;14.272;2022-07-05T13:50:45;32.40;38.90
38333;DHT22;25748;46.670;14.272;2022-07-05T13:53:11;32.30;40.10
38333;DHT22;25748;46.670;14.272;2022-07-05T13:55:37;32.40;40.00
38333;DHT22;25748;46.670;14.272;2022-07-05T13:58:03;32.60;39.40
38333;DHT22;25748;46.670;14.272;2022-07-05T14:00:28;32.90;39.70
38333;DHT22;25748;46.670;14.272;2022-07-05T14:02:54;33.10;39.60
38333;DHT22;25748;46.670;14.272;2022-07-05T14:05:20;33.40;38.90
38333;DHT22;25748;46.670;14.272;2022-07-05T14:07:47;33.50;37.60
38333;DHT22;25748;46.670;14.272;2022-07-05T14:10:13;33.50;38.30
38333;DHT22;25748;46.670;14.272;2022-07-05T14:12:40;33.50;38.00
38333;DHT22;25748;46.670;14.272;2022-07-05T14:15:07;33.50;38.00
38333;DHT22;25748;46.670;14.272;2022-07-05T14:17:32;33.40;37.90
38333;DHT22;25748;46.670;14.272;2022-07-05T14:19:58;33.30;38.10
38333;DHT22;25748;46.670;14.272;2022-07-05T14:22:24;33.10;38.10
38333;DHT22;25748;46.670;14.272;2022-07-05T14:25:00;33.00;37.80
38333;DHT22;25748;46.670;14.272;2022-07-05T14:27:29;32.80;37.70
38333;DHT22;25748;46.670;14.272;2022-07-05T14:29:58;32.40;37.40
38333;DHT22;25748;46.670;14.272;2022-07-05T14:32:26;32.10;37.70
38333;DHT22;25748;46.670;14.272;2022-07-05T14:34:56;31.90;38.00
38333;DHT22;25748;46.670;14.272;2022-07-05T14:37:27;31.40;37.20
38333;DHT22;25748;46.670;14.272;2022-07-05T14:42:36;31.00;38.50
38333;DHT22;25748;46.670;14.272;2022-07-05T14:45:02;30.90;38.60
38333;DHT22;25748;46.670;14.272;2022-07-05T14:47:34;30.60;38.30
38333;DHT22;25748;46.670;14.272;2022-07-05T14:50:02;30.40;38.60
38333;DHT22;25748;46.670;14.272;2022-07-05T14:52:28;30.20;38.90
38333;DHT22;25748;46.670;14.272;2022-07-05T14:54:57;30.10;39.00
38333;DHT22;25748;46.670;14.272;2022-07-05T14:57:31;30.00;39.10
38333;DHT22;25748;46.670;14.272;2022-07-05T15:00:16;29.90;38.20
38333;DHT22;25748;46.670;14.272;2022-07-05T15:02:47;29.80;37.70
38333;DHT22;25748;46.670;14.272;2022-07-05T15:05:16;29.70;38.00
38333;DHT22;25748;46.670;14.272;2022-07-05T15:07:45;29.50;38.40
38333;DHT22;25748;46.670;14.272;2022-07-05T15:10:11;29.40;38.50
38333;DHT22;25748;46.670;14.272;2022-07-05T15:12:36;29.30;38.60
38333;DHT22;25748;46.670;14.272;2022-07-05T15:15:03;29.20;39.00
38333;DHT22;25748;46.670;14.272;2022-07-05T15:17:29;29.10;39.50
38333;DHT22;25748;46.670;14.272;2022-07-05T15:19:54;29.10;40.10
38333;DHT22;25748;46.670;14.272;2022-07-05T15:22:20;28.90;40.90
38333;DHT22;25748;46.670;14.272;2022-07-05T15:24:46;28.80;40.50
38333;DHT22;25748;46.670;14.272;2022-07-05T15:27:12;28.60;41.20
38333;DHT22;25748;46.670;14.272;2022-07-05T15:29:38;28.40;41.00
38333;DHT22;25748;46.670;14.272;2022-07-05T15:32:04;28.10;41.20
38333;DHT22;25748;46.670;14.272;2022-07-05T15:34:30;28.00;42.30
38333;DHT22;25748;46.670;14.272;2022-07-05T15:36:55;27.70;42.50
38333;DHT22;25748;46.670;14.272;2022-07-05T15:39:21;27.40;44.70
38333;DHT22;25748;46.670;14.272;2022-07-05T15:41:47;27.10;45.30
38333;DHT22;25748;46.670;14.272;2022-07-05T15:44:13;26.90;46.00
38333;DHT22;25748;46.670;14.272;2022-07-05T15:46:39;26.70;47.10
38333;DHT22;25748;46.670;14.272;2022-07-05T15:49:23;26.50;47.60
38333;DHT22;25748;46.670;14.272;2022-07-05T15:51:48;26.30;48.50
38333;DHT22;25748;46.670;14.272;2022-07-05T15:54:14;26.20;49.20
38333;DHT22;25748;46.670;14.272;2022-07-05T15:56:40;26.00;49.30